sensor_id;sensor_type;location;lat;lon;timestamp;P1;durP1;ratioP1;P2;durP2;ratioP2
13731;SDS011;6937;56.096;12.664;2023-05-16T00:01:48;5.53;;;4.63;;
13731;SDS011;6937;56.096;12.664;2023-05-16T00:04:14;5.15;;;4.75;;
13731;SDS011;6937;56.096;12.664;2023-05-16T00:06:40;6.38;;;4.70;;
13731;SDS011;6937;56.096;12.664;2023-05-16T00:09:05;5.00;;;4.50;;
13731;SDS011;6937;56.096;12.664;2023-05-16T00:11:31;8.30;;;5.35;;
13731;SDS011;6937;56.096;12.664;2023-05-16T00:13:56;6.00;;;4.28;;
13731;SDS011;6937;56.096;12.664;2023-05-16T00:16:21;5.00;;;4.60;;
13731;SDS011;6937;56.096;12.664;2023-05-16T00:18:49;6.25;;;5.70;;
13731;SDS011;6937;56.096;12.664;2023-05-16T00:21:16;7.45;;;5.15;;
13731;SDS011;6937;56.096;12.664;2023-05-16T00:23:42;6.07;;;5.25;;
13731;SDS011;6937;56.096;12.664;2023-05-16T00:26:08;6.10;;;4.95;;
13731;SDS011;6937;56.096;12.664;2023-05-16T00:28:33;5.65;;;5.15;;
13731;SDS011;6937;56.096;12.664;2023-05-16T00:30:59;5.30;;;4.53;;
13731;SDS011;6937;56.096;12.664;2023-05-16T00:33:24;5.57;;;5.07;;
13731;SDS011;6937;56.096;12.664;2023-05-16T00:35:50;6.38;;;5.55;;
13731;SDS011;6937;56.096;12.664;2023-05-16T00:38:17;7.93;;;5.50;;
13731;SDS011;6937;56.096;12.664;2023-05-16T00:40:43;6.13;;;5.25;;
13731;SDS011;6937;56.096;12.664;2023-05-16T00:43:08;5.68;;;5.18;;
13731;SDS011;6937;56.096;12.664;2023-05-16T00:45:34;5.97;;;5.20;;
13731;SDS011;6937;56.096;12.664;2023-05-16T00:47:59;7.20;;;5.85;;
13731;SDS011;6937;56.096;12.664;2023-05-16T00:50:24;6.95;;;6.22;;
13731;SDS011;6937;56.096;12.664;2023-05-16T00:52:50;7.07;;;6.47;;
13731;SDS011;6937;56.096;12.664;2023-05-16T00:55:15;8.93;;;7.80;;
13731;SDS011;6937;56.096;12.664;2023-05-16T00:57:41;10.70;;;9.65;;
13731;SDS011;6937;56.096;12.664;2023-05-16T01:00:07;14.05;;;12.82;;
13731;SDS011;6937;56.096;12.664;2023-05-16T01:02:36;18.02;;;15.02;;
13731;SDS011;6937;56.096;12.664;2023-05-16T01:05:02;21.45;;;18.85;;
13731;SDS011;6937;56.096;12.664;2023-05-16T01:07:34;24.85;;;21.58;;
13731;SDS011;6937;56.096;12.664;2023-05-16T01:10:00;25.95;;;23.15;;
13731;SDS011;6937;56.096;12.664;2023-05-16T01:12:36;29.95;;;25.88;;
13731;SDS011;6937;56.096;12.664;2023-05-16T01:15:11;32.47;;;27.50;;
13731;SDS011;6937;56.096;12.664;2023-05-16T01:28:09;33.65;;;27.27;;
13731;SDS011;6937;56.096;12.664;2023-05-16T01:30:38;35.22;;;28.15;;
13731;SDS011;6937;56.096;12.664;2023-05-16T01:33:05;37.95;;;29.67;;
13731;SDS011;6937;56.096;12.664;2023-05-16T01:35:31;37.17;;;30.08;;
13731;SDS011;6937;56.096;12.664;2023-05-16T01:37:58;38.45;;;31.35;;
13731;SDS011;6937;56.096;12.664;2023-05-16T01:43:40;39.05;;;30.88;;
13731;SDS011;6937;56.096;12.664;2023-05-16T01:46:14;35.72;;;27.17;;
13731;SDS011;6937;56.096;12.664;2023-05-16T01:51:40;33.95;;;27.85;;
13731;SDS011;6937;56.096;12.664;2023-05-16T01:54:09;29.95;;;25.95;;
13731;SDS011;6937;56.096;12.664;2023-05-16T01:56:37;34.40;;;26.23;;
13731;SDS011;6937;56.096;12.664;2023-05-16T01:59:04;31.27;;;26.15;;
13731;SDS011;6937;56.096;12.664;2023-05-16T02:01:32;36.08;;;27.50;;
13731;SDS011;6937;56.096;12.664;2023-05-16T02:03:57;34.15;;;26.58;;
13731;SDS011;6937;56.096;12.664;2023-05-16T02:06:23;36.90;;;26.35;;
13731;SDS011;6937;56.096;12.664;2023-05-16T02:08:49;37.40;;;26.80;;
13731;SDS011;6937;56.096;12.664;2023-05-16T02:11:15;35.55;;;25.17;;
13731;SDS011;6937;56.096;12.664;2023-05-16T02:13:41;31.52;;;23.45;;
13731;SDS011;6937;56.096;12.664;2023-05-16T02:16:06;32.90;;;25.10;;
13731;SDS011;6937;56.096;12.664;2023-05-16T02:18:35;31.10;;;23.52;;
13731;SDS011;6937;56.096;12.664;2023-05-16T02:21:00;28.60;;;23.02;;
13731;SDS011;6937;56.096;12.664;2023-05-16T02:23:25;30.88;;;22.48;;
13731;SDS011;6937;56.096;12.664;2023-05-16T02:25:51;31.42;;;23.77;;
13731;SDS011;6937;56.096;12.664;2023-05-16T02:28:16;31.60;;;21.38;;
13731;SDS011;6937;56.096;12.664;2023-05-16T02:30:41;24.83;;;19.95;;
13731;SDS011;6937;56.096;12.664;2023-05-16T02:33:07;24.58;;;17.77;;
13731;SDS011;6937;56.096;12.664;2023-05-16T02:35:32;22.88;;;18.20;;
13731;SDS011;6937;56.096;12.664;2023-05-16T02:37:58;24.58;;;17.50;;
13731;SDS011;6937;56.096;12.664;2023-05-16T02:40:23;23.55;;;16.48;;
13731;SDS011;6937;56.096;12.664;2023-05-16T02:42:49;23.63;;;16.63;;
13731;SDS011;6937;56.096;12.664;2023-05-16T02:45:14;25.35;;;16.23;;
13731;SDS011;6937;56.096;12.664;2023-05-16T02:47:39;22.75;;;15.25;;
13731;SDS011;6937;56.096;12.664;2023-05-16T02:50:05;20.23;;;14.75;;
13731;SDS011;6937;56.096;12.664;2023-05-16T02:52:31;23.63;;;15.48;;
13731;SDS011;6937;56.096;12.664;2023-05-16T02:54:56;21.48;;;14.48;;
13731;SDS011;6937;56.096;12.664;2023-05-16T02:57:21;23.15;;;15.23;;
13731;SDS011;6937;56.096;12.664;2023-05-16T02:59:47;22.88;;;13.65;;
13731;SDS011;6937;56.096;12.664;2023-05-16T03:02:12;24.75;;;13.98;;
13731;SDS011;6937;56.096;12.664;2023-05-16T03:04:38;22.15;;;12.73;;
13731;SDS011;6937;56.096;12.664;2023-05-16T03:07:03;19.38;;;12.68;;
13731;SDS011;6937;56.096;12.664;2023-05-16T03:09:29;19.95;;;13.30;;
13731;SDS011;6937;56.096;12.664;2023-05-16T03:11:54;16.80;;;11.98;;
13731;SDS011;6937;56.096;12.664;2023-05-16T03:14:20;17.05;;;12.13;;
13731;SDS011;6937;56.096;12.664;2023-05-16T03:16:45;19.80;;;12.60;;
13731;SDS011;6937;56.096;12.664;2023-05-16T03:19:11;17.65;;;12.55;;
13731;SDS011;6937;56.096;12.664;2023-05-16T03:21:38;18.45;;;11.50;;
13731;SDS011;6937;56.096;12.664;2023-05-16T03:24:03;18.52;;;11.05;;
13731;SDS011;6937;56.096;12.664;2023-05-16T03:26:29;20.38;;;11.32;;
13731;SDS011;6937;56.096;12.664;2023-05-16T03:28:54;20.25;;;11.13;;
13731;SDS011;6937;56.096;12.664;2023-05-16T03:31:19;19.73;;;12.25;;
13731;SDS011;6937;56.096;12.664;2023-05-16T03:33:45;20.67;;;12.52;;
13731;SDS011;6937;56.096;12.664;2023-05-16T03:36:10;18.75;;;13.18;;
13731;SDS011;6937;56.096;12.664;2023-05-16T03:38:36;17.23;;;12.65;;
13731;SDS011;6937;56.096;12.664;2023-05-16T03:41:01;23.85;;;12.90;;
13731;SDS011;6937;56.096;12.664;2023-05-16T03:43:27;21.10;;;11.93;;
13731;SDS011;6937;56.096;12.664;2023-05-16T03:45:52;18.02;;;11.75;;
13731;SDS011;6937;56.096;12.664;2023-05-16T03:48:18;18.35;;;11.35;;
13731;SDS011;6937;56.096;12.664;2023-05-16T03:50:43;20.10;;;12.40;;
13731;SDS011;6937;56.096;12.664;2023-05-16T03:53:09;18.50;;;12.50;;
13731;SDS011;6937;56.096;12.664;2023-05-16T03:55:35;19.60;;;12.40;;
13731;SDS011;6937;56.096;12.664;2023-05-16T03:58:01;20.67;;;13.52;;
13731;SDS011;6937;56.096;12.664;2023-05-16T04:00:26;20.45;;;14.50;;
13731;SDS011;6937;56.096;12.664;2023-05-16T04:02:52;19.48;;;13.30;;
13731;SDS011;6937;56.096;12.664;2023-05-16T04:05:17;24.23;;;13.50;;
13731;SDS011;6937;56.096;12.664;2023-05-16T04:07:43;23.63;;;14.25;;
13731;SDS011;6937;56.096;12.664;2023-05-16T04:10:08;22.65;;;14.10;;
13731;SDS011;6937;56.096;12.664;2023-05-16T04:12:34;24.42;;;13.75;;
13731;SDS011;6937;56.096;12.664;2023-05-16T04:15:00;25.88;;;13.40;;
13731;SDS011;6937;56.096;12.664;2023-05-16T04:17:27;21.92;;;13.98;;
13731;SDS011;6937;56.096;12.664;2023-05-16T04:19:52;21.17;;;11.95;;
13731;SDS011;6937;56.096;12.664;2023-05-16T04:22:19;20.27;;;12.65;;
13731;SDS011;6937;56.096;12.664;2023-05-16T04:24:46;24.50;;;13.18;;
13731;SDS011;6937;56.096;12.664;2023-05-16T04:27:11;21.85;;;14.43;;
13731;SDS011;6937;56.096;12.664;2023-05-16T04:29:36;22.35;;;13.10;;
13731;SDS011;6937;56.096;12.664;2023-05-16T04:32:02;23.48;;;15.35;;
13731;SDS011;6937;56.096;12.664;2023-05-16T04:34:27;24.90;;;14.73;;
13731;SDS011;6937;56.096;12.664;2023-05-16T04:36:53;22.35;;;13.98;;
13731;SDS011;6937;56.096;12.664;2023-05-16T04:39:19;23.35;;;13.80;;
13731;SDS011;6937;56.096;12.664;2023-05-16T04:41:45;25.02;;;14.93;;
13731;SDS011;6937;56.096;12.664;2023-05-16T04:44:10;23.15;;;14.02;;
13731;SDS011;6937;56.096;12.664;2023-05-16T04:46:35;24.65;;;14.48;;
13731;SDS011;6937;56.096;12.664;2023-05-16T04:49:01;21.98;;;15.07;;
13731;SDS011;6937;56.096;12.664;2023-05-16T04:51:27;22.13;;;15.20;;
13731;SDS011;6937;56.096;12.664;2023-05-16T04:53:52;22.13;;;15.23;;
13731;SDS011;6937;56.096;12.664;2023-05-16T04:56:17;25.77;;;16.10;;
13731;SDS011;6937;56.096;12.664;2023-05-16T04:58:44;26.95;;;15.82;;
13731;SDS011;6937;56.096;12.664;2023-05-16T05:01:10;30.33;;;16.83;;
13731;SDS011;6937;56.096;12.664;2023-05-16T05:03:35;25.00;;;16.00;;
13731;SDS011;6937;56.096;12.664;2023-05-16T05:06:01;24.90;;;15.60;;
13731;SDS011;6937;56.096;12.664;2023-05-16T05:08:27;20.13;;;14.70;;
13731;SDS011;6937;56.096;12.664;2023-05-16T05:10:54;25.33;;;15.88;;
13731;SDS011;6937;56.096;12.664;2023-05-16T05:13:20;20.20;;;12.70;;
13731;SDS011;6937;56.096;12.664;2023-05-16T05:15:45;19.88;;;12.30;;
13731;SDS011;6937;56.096;12.664;2023-05-16T05:18:10;21.45;;;13.00;;
13731;SDS011;6937;56.096;12.664;2023-05-16T05:20:36;19.65;;;11.98;;
13731;SDS011;6937;56.096;12.664;2023-05-16T05:23:01;19.25;;;11.98;;
13731;SDS011;6937;56.096;12.664;2023-05-16T05:25:27;19.90;;;11.02;;
13731;SDS011;6937;56.096;12.664;2023-05-16T05:27:52;18.33;;;11.43;;
13731;SDS011;6937;56.096;12.664;2023-05-16T05:30:18;18.48;;;11.15;;
13731;SDS011;6937;56.096;12.664;2023-05-16T05:32:43;20.95;;;11.18;;
13731;SDS011;6937;56.096;12.664;2023-05-16T05:35:08;22.90;;;12.80;;
13731;SDS011;6937;56.096;12.664;2023-05-16T05:37:34;20.42;;;12.10;;
13731;SDS011;6937;56.096;12.664;2023-05-16T05:40:00;22.88;;;13.73;;
13731;SDS011;6937;56.096;12.664;2023-05-16T05:42:25;21.20;;;12.70;;
13731;SDS011;6937;56.096;12.664;2023-05-16T05:44:51;19.08;;;10.77;;
13731;SDS011;6937;56.096;12.664;2023-05-16T05:47:16;18.25;;;9.68;;
13731;SDS011;6937;56.096;12.664;2023-05-16T05:49:42;22.60;;;11.10;;
13731;SDS011;6937;56.096;12.664;2023-05-16T05:52:07;19.60;;;11.18;;
13731;SDS011;6937;56.096;12.664;2023-05-16T05:54:33;17.90;;;10.10;;
13731;SDS011;6937;56.096;12.664;2023-05-16T05:56:59;18.50;;;9.90;;
13731;SDS011;6937;56.096;12.664;2023-05-16T05:59:24;14.88;;;8.98;;
13731;SDS011;6937;56.096;12.664;2023-05-16T06:01:50;18.05;;;8.70;;
13731;SDS011;6937;56.096;12.664;2023-05-16T06:04:19;13.48;;;7.63;;
13731;SDS011;6937;56.096;12.664;2023-05-16T06:06:45;15.05;;;7.97;;
13731;SDS011;6937;56.096;12.664;2023-05-16T06:09:10;14.43;;;7.10;;
13731;SDS011;6937;56.096;12.664;2023-05-16T06:11:37;15.30;;;7.15;;
13731;SDS011;6937;56.096;12.664;2023-05-16T06:14:03;15.18;;;7.55;;
13731;SDS011;6937;56.096;12.664;2023-05-16T06:16:29;15.38;;;7.20;;
13731;SDS011;6937;56.096;12.664;2023-05-16T06:18:55;14.43;;;7.53;;
13731;SDS011;6937;56.096;12.664;2023-05-16T06:21:20;19.67;;;7.57;;
13731;SDS011;6937;56.096;12.664;2023-05-16T06:23:45;14.75;;;7.50;;
13731;SDS011;6937;56.096;12.664;2023-05-16T06:26:11;13.57;;;7.35;;
13731;SDS011;6937;56.096;12.664;2023-05-16T06:28:37;14.70;;;7.25;;
13731;SDS011;6937;56.096;12.664;2023-05-16T06:31:02;12.98;;;7.80;;
13731;SDS011;6937;56.096;12.664;2023-05-16T06:33:27;15.82;;;8.00;;
13731;SDS011;6937;56.096;12.664;2023-05-16T06:35:53;13.50;;;7.38;;
13731;SDS011;6937;56.096;12.664;2023-05-16T06:38:18;20.02;;;8.73;;
13731;SDS011;6937;56.096;12.664;2023-05-16T06:40:44;19.48;;;8.10;;
13731;SDS011;6937;56.096;12.664;2023-05-16T06:43:09;19.75;;;8.48;;
13731;SDS011;6937;56.096;12.664;2023-05-16T06:45:36;18.67;;;8.07;;
13731;SDS011;6937;56.096;12.664;2023-05-16T06:48:01;17.15;;;8.02;;
13731;SDS011;6937;56.096;12.664;2023-05-16T06:50:27;16.45;;;7.45;;
13731;SDS011;6937;56.096;12.664;2023-05-16T06:52:52;19.17;;;8.10;;
13731;SDS011;6937;56.096;12.664;2023-05-16T06:55:18;22.77;;;7.85;;
13731;SDS011;6937;56.096;12.664;2023-05-16T06:57:43;18.65;;;8.02;;
13731;SDS011;6937;56.096;12.664;2023-05-16T07:00:08;14.48;;;6.95;;
13731;SDS011;6937;56.096;12.664;2023-05-16T07:02:34;21.73;;;8.10;;
13731;SDS011;6937;56.096;12.664;2023-05-16T07:05:00;15.27;;;7.45;;
13731;SDS011;6937;56.096;12.664;2023-05-16T07:07:25;17.33;;;7.80;;
13731;SDS011;6937;56.096;12.664;2023-05-16T07:09:51;17.55;;;7.32;;
13731;SDS011;6937;56.096;12.664;2023-05-16T07:12:16;17.35;;;6.97;;
13731;SDS011;6937;56.096;12.664;2023-05-16T07:14:42;17.83;;;7.45;;
13731;SDS011;6937;56.096;12.664;2023-05-16T07:17:07;13.77;;;6.90;;
13731;SDS011;6937;56.096;12.664;2023-05-16T07:19:33;16.30;;;6.05;;
13731;SDS011;6937;56.096;12.664;2023-05-16T07:21:59;18.15;;;6.47;;
13731;SDS011;6937;56.096;12.664;2023-05-16T07:24:24;16.70;;;6.25;;
13731;SDS011;6937;56.096;12.664;2023-05-16T07:26:50;15.40;;;6.65;;
13731;SDS011;6937;56.096;12.664;2023-05-16T07:29:15;15.07;;;6.25;;
13731;SDS011;6937;56.096;12.664;2023-05-16T07:31:41;17.25;;;6.38;;
13731;SDS011;6937;56.096;12.664;2023-05-16T07:34:06;17.92;;;6.35;;
13731;SDS011;6937;56.096;12.664;2023-05-16T07:36:32;13.95;;;5.30;;
13731;SDS011;6937;56.096;12.664;2023-05-16T07:38:59;16.70;;;5.75;;
13731;SDS011;6937;56.096;12.664;2023-05-16T07:41:24;17.58;;;5.80;;
13731;SDS011;6937;56.096;12.664;2023-05-16T07:43:50;18.42;;;5.43;;
13731;SDS011;6937;56.096;12.664;2023-05-16T07:46:15;17.92;;;6.15;;
13731;SDS011;6937;56.096;12.664;2023-05-16T07:48:41;16.88;;;5.82;;
13731;SDS011;6937;56.096;12.664;2023-05-16T07:51:06;15.38;;;6.07;;
13731;SDS011;6937;56.096;12.664;2023-05-16T07:53:32;14.93;;;6.05;;
13731;SDS011;6937;56.096;12.664;2023-05-16T07:55:57;14.65;;;5.53;;
13731;SDS011;6937;56.096;12.664;2023-05-16T07:58:23;18.08;;;5.30;;
13731;SDS011;6937;56.096;12.664;2023-05-16T08:00:48;16.60;;;5.15;;
13731;SDS011;6937;56.096;12.664;2023-05-16T08:03:14;17.02;;;5.40;;
13731;SDS011;6937;56.096;12.664;2023-05-16T08:05:40;16.55;;;5.50;;
13731;SDS011;6937;56.096;12.664;2023-05-16T08:08:05;13.30;;;5.20;;
13731;SDS011;6937;56.096;12.664;2023-05-16T08:10:30;13.82;;;5.30;;
13731;SDS011;6937;56.096;12.664;2023-05-16T08:12:56;14.70;;;5.57;;
13731;SDS011;6937;56.096;12.664;2023-05-16T08:15:21;12.75;;;5.43;;
13731;SDS011;6937;56.096;12.664;2023-05-16T08:17:47;14.43;;;5.47;;
13731;SDS011;6937;56.096;12.664;2023-05-16T08:20:12;11.88;;;4.63;;
13731;SDS011;6937;56.096;12.664;2023-05-16T08:22:37;14.85;;;4.93;;
13731;SDS011;6937;56.096;12.664;2023-05-16T08:25:03;14.40;;;5.22;;
13731;SDS011;6937;56.096;12.664;2023-05-16T08:27:29;15.18;;;4.50;;
13731;SDS011;6937;56.096;12.664;2023-05-16T08:29:54;13.82;;;4.45;;
13731;SDS011;6937;56.096;12.664;2023-05-16T08:32:20;15.35;;;4.70;;
13731;SDS011;6937;56.096;12.664;2023-05-16T08:34:46;12.23;;;4.57;;
13731;SDS011;6937;56.096;12.664;2023-05-16T08:37:12;15.30;;;5.45;;
13731;SDS011;6937;56.096;12.664;2023-05-16T08:39:38;10.13;;;4.13;;
13731;SDS011;6937;56.096;12.664;2023-05-16T08:42:03;16.38;;;4.63;;
13731;SDS011;6937;56.096;12.664;2023-05-16T08:44:29;11.98;;;3.90;;
13731;SDS011;6937;56.096;12.664;2023-05-16T08:46:56;11.13;;;4.10;;
13731;SDS011;6937;56.096;12.664;2023-05-16T08:49:21;11.20;;;3.88;;
13731;SDS011;6937;56.096;12.664;2023-05-16T08:51:47;10.25;;;3.78;;
13731;SDS011;6937;56.096;12.664;2023-05-16T08:54:15;9.45;;;4.25;;
13731;SDS011;6937;56.096;12.664;2023-05-16T08:56:43;11.70;;;3.50;;
13731;SDS011;6937;56.096;12.664;2023-05-16T08:59:10;12.93;;;4.05;;
13731;SDS011;6937;56.096;12.664;2023-05-16T09:01:39;8.32;;;3.00;;
13731;SDS011;6937;56.096;12.664;2023-05-16T09:04:06;12.10;;;3.63;;
13731;SDS011;6937;56.096;12.664;2023-05-16T09:06:33;10.85;;;3.25;;
13731;SDS011;6937;56.096;12.664;2023-05-16T09:08:59;8.77;;;3.25;;
13731;SDS011;6937;56.096;12.664;2023-05-16T09:11:24;11.75;;;3.80;;
13731;SDS011;6937;56.096;12.664;2023-05-16T09:13:50;11.98;;;3.70;;
13731;SDS011;6937;56.096;12.664;2023-05-16T09:16:16;9.65;;;3.85;;
13731;SDS011;6937;56.096;12.664;2023-05-16T09:18:43;15.18;;;3.38;;
13731;SDS011;6937;56.096;12.664;2023-05-16T09:21:10;10.27;;;3.20;;
13731;SDS011;6937;56.096;12.664;2023-05-16T09:23:36;8.60;;;3.38;;
13731;SDS011;6937;56.096;12.664;2023-05-16T09:26:02;10.43;;;3.50;;
13731;SDS011;6937;56.096;12.664;2023-05-16T09:28:29;12.15;;;4.10;;
13731;SDS011;6937;56.096;12.664;2023-05-16T09:30:55;11.27;;;3.72;;
13731;SDS011;6937;56.096;12.664;2023-05-16T09:33:23;10.90;;;3.53;;
13731;SDS011;6937;56.096;12.664;2023-05-16T09:35:54;10.38;;;3.30;;
13731;SDS011;6937;56.096;12.664;2023-05-16T09:38:24;11.85;;;3.72;;
13731;SDS011;6937;56.096;12.664;2023-05-16T09:40:52;10.02;;;3.67;;
13731;SDS011;6937;56.096;12.664;2023-05-16T09:43:21;13.30;;;3.85;;
13731;SDS011;6937;56.096;12.664;2023-05-16T09:45:51;12.85;;;3.78;;
13731;SDS011;6937;56.096;12.664;2023-05-16T09:48:18;13.50;;;3.70;;
13731;SDS011;6937;56.096;12.664;2023-05-16T09:50:46;10.02;;;3.00;;
13731;SDS011;6937;56.096;12.664;2023-05-16T09:53:16;9.48;;;3.30;;
13731;SDS011;6937;56.096;12.664;2023-05-16T09:55:43;11.98;;;3.33;;
13731;SDS011;6937;56.096;12.664;2023-05-16T09:58:09;10.13;;;3.15;;
13731;SDS011;6937;56.096;12.664;2023-05-16T10:00:35;10.90;;;3.67;;
13731;SDS011;6937;56.096;12.664;2023-05-16T10:03:02;13.18;;;3.58;;
13731;SDS011;6937;56.096;12.664;2023-05-16T10:05:28;13.95;;;3.95;;
13731;SDS011;6937;56.096;12.664;2023-05-16T10:07:55;9.57;;;3.25;;
13731;SDS011;6937;56.096;12.664;2023-05-16T10:10:22;12.93;;;4.00;;
13731;SDS011;6937;56.096;12.664;2023-05-16T10:12:49;11.93;;;3.03;;
13731;SDS011;6937;56.096;12.664;2023-05-16T10:15:16;11.00;;;3.15;;
13731;SDS011;6937;56.096;12.664;2023-05-16T10:17:44;10.35;;;3.15;;
13731;SDS011;6937;56.096;12.664;2023-05-16T10:20:15;11.05;;;3.47;;
13731;SDS011;6937;56.096;12.664;2023-05-16T10:22:42;10.60;;;3.55;;
13731;SDS011;6937;56.096;12.664;2023-05-16T10:25:14;11.52;;;3.33;;
13731;SDS011;6937;56.096;12.664;2023-05-16T10:27:48;10.85;;;2.90;;
13731;SDS011;6937;56.096;12.664;2023-05-16T10:30:16;9.38;;;3.13;;
13731;SDS011;6937;56.096;12.664;2023-05-16T10:32:43;12.77;;;3.67;;
13731;SDS011;6937;56.096;12.664;2023-05-16T10:35:10;11.05;;;3.75;;
13731;SDS011;6937;56.096;12.664;2023-05-16T10:37:36;10.77;;;3.38;;
13731;SDS011;6937;56.096;12.664;2023-05-16T10:40:04;9.13;;;3.28;;
13731;SDS011;6937;56.096;12.664;2023-05-16T10:42:32;11.10;;;3.13;;
13731;SDS011;6937;56.096;12.664;2023-05-16T10:48:00;9.68;;;3.10;;
13731;SDS011;6937;56.096;12.664;2023-05-16T10:50:37;11.88;;;3.67;;
13731;SDS011;6937;56.096;12.664;2023-05-16T10:53:19;11.98;;;3.17;;
13731;SDS011;6937;56.096;12.664;2023-05-16T11:04:06;11.48;;;3.17;;
13731;SDS011;6937;56.096;12.664;2023-05-16T11:11:56;14.38;;;3.60;;
13731;SDS011;6937;56.096;12.664;2023-05-16T11:17:10;10.20;;;2.75;;
13731;SDS011;6937;56.096;12.664;2023-05-16T11:25:01;12.77;;;3.40;;
13731;SDS011;6937;56.096;12.664;2023-05-16T11:27:35;15.40;;;4.78;;
13731;SDS011;6937;56.096;12.664;2023-05-16T11:30:11;14.23;;;3.40;;
13731;SDS011;6937;56.096;12.664;2023-05-16T11:32:44;10.13;;;3.42;;
13731;SDS011;6937;56.096;12.664;2023-05-16T11:35:12;12.07;;;3.60;;
13731;SDS011;6937;56.096;12.664;2023-05-16T11:37:40;10.13;;;3.30;;
13731;SDS011;6937;56.096;12.664;2023-05-16T11:40:07;12.95;;;3.28;;
13731;SDS011;6937;56.096;12.664;2023-05-16T11:42:42;11.60;;;3.45;;
13731;SDS011;6937;56.096;12.664;2023-05-16T11:45:10;9.57;;;3.47;;
13731;SDS011;6937;56.096;12.664;2023-05-16T11:47:40;9.15;;;2.70;;
13731;SDS011;6937;56.096;12.664;2023-05-16T11:50:12;10.05;;;3.15;;
13731;SDS011;6937;56.096;12.664;2023-05-16T11:52:39;12.75;;;3.50;;
13731;SDS011;6937;56.096;12.664;2023-05-16T11:55:08;11.60;;;3.13;;
13731;SDS011;6937;56.096;12.664;2023-05-16T11:57:36;11.20;;;3.50;;
13731;SDS011;6937;56.096;12.664;2023-05-16T12:00:13;9.75;;;2.88;;
13731;SDS011;6937;56.096;12.664;2023-05-16T12:02:47;10.35;;;3.40;;
13731;SDS011;6937;56.096;12.664;2023-05-16T12:05:17;11.57;;;3.17;;
13731;SDS011;6937;56.096;12.664;2023-05-16T12:07:47;13.32;;;3.40;;
13731;SDS011;6937;56.096;12.664;2023-05-16T12:10:14;8.75;;;2.72;;
13731;SDS011;6937;56.096;12.664;2023-05-16T12:12:41;14.75;;;3.20;;
13731;SDS011;6937;56.096;12.664;2023-05-16T12:15:09;8.35;;;2.40;;
13731;SDS011;6937;56.096;12.664;2023-05-16T12:17:37;11.88;;;3.33;;
13731;SDS011;6937;56.096;12.664;2023-05-16T12:20:04;11.85;;;3.22;;
13731;SDS011;6937;56.096;12.664;2023-05-16T12:22:37;11.65;;;3.30;;
13731;SDS011;6937;56.096;12.664;2023-05-16T12:28:03;10.82;;;3.15;;
13731;SDS011;6937;56.096;12.664;2023-05-16T12:30:31;12.75;;;3.67;;
13731;SDS011;6937;56.096;12.664;2023-05-16T12:33:11;10.73;;;3.05;;
13731;SDS011;6937;56.096;12.664;2023-05-16T12:35:39;10.13;;;3.20;;
13731;SDS011;6937;56.096;12.664;2023-05-16T12:38:07;12.32;;;3.47;;
13731;SDS011;6937;56.096;12.664;2023-05-16T12:40:39;14.00;;;3.30;;
13731;SDS011;6937;56.096;12.664;2023-05-16T12:43:16;11.07;;;3.65;;
13731;SDS011;6937;56.096;12.664;2023-05-16T12:45:51;7.97;;;2.97;;
13731;SDS011;6937;56.096;12.664;2023-05-16T12:48:19;12.82;;;2.97;;
13731;SDS011;6937;56.096;12.664;2023-05-16T12:50:45;11.15;;;3.60;;
13731;SDS011;6937;56.096;12.664;2023-05-16T12:53:12;9.48;;;3.15;;
13731;SDS011;6937;56.096;12.664;2023-05-16T12:55:39;9.18;;;3.53;;
13731;SDS011;6937;56.096;12.664;2023-05-16T12:58:05;12.40;;;4.10;;
13731;SDS011;6937;56.096;12.664;2023-05-16T13:00:32;9.15;;;3.08;;
13731;SDS011;6937;56.096;12.664;2023-05-16T13:02:58;12.02;;;3.40;;
13731;SDS011;6937;56.096;12.664;2023-05-16T13:05:23;11.93;;;3.95;;
13731;SDS011;6937;56.096;12.664;2023-05-16T13:07:51;13.38;;;3.20;;
13731;SDS011;6937;56.096;12.664;2023-05-16T13:10:21;11.80;;;3.22;;
13731;SDS011;6937;56.096;12.664;2023-05-16T13:12:47;9.45;;;3.00;;
13731;SDS011;6937;56.096;12.664;2023-05-16T13:15:13;8.85;;;2.90;;
13731;SDS011;6937;56.096;12.664;2023-05-16T13:17:40;11.30;;;3.28;;
13731;SDS011;6937;56.096;12.664;2023-05-16T13:20:09;13.20;;;3.45;;
13731;SDS011;6937;56.096;12.664;2023-05-16T13:22:41;8.13;;;3.22;;
13731;SDS011;6937;56.096;12.664;2023-05-16T13:25:09;15.57;;;3.40;;
13731;SDS011;6937;56.096;12.664;2023-05-16T13:27:35;9.05;;;3.10;;
13731;SDS011;6937;56.096;12.664;2023-05-16T13:30:02;10.13;;;3.10;;
13731;SDS011;6937;56.096;12.664;2023-05-16T13:32:31;12.93;;;3.40;;
13731;SDS011;6937;56.096;12.664;2023-05-16T13:34:56;11.95;;;3.47;;
13731;SDS011;6937;56.096;12.664;2023-05-16T13:37:22;12.98;;;3.35;;
13731;SDS011;6937;56.096;12.664;2023-05-16T13:39:51;11.38;;;3.53;;
13731;SDS011;6937;56.096;12.664;2023-05-16T13:42:18;11.43;;;3.65;;
13731;SDS011;6937;56.096;12.664;2023-05-16T13:44:46;13.02;;;3.20;;
13731;SDS011;6937;56.096;12.664;2023-05-16T13:47:12;11.50;;;3.90;;
13731;SDS011;6937;56.096;12.664;2023-05-16T13:49:38;12.50;;;3.22;;
13731;SDS011;6937;56.096;12.664;2023-05-16T13:52:04;12.68;;;3.67;;
13731;SDS011;6937;56.096;12.664;2023-05-16T13:54:30;12.05;;;3.20;;
13731;SDS011;6937;56.096;12.664;2023-05-16T13:56:56;10.05;;;3.10;;
13731;SDS011;6937;56.096;12.664;2023-05-16T13:59:22;10.52;;;3.33;;
13731;SDS011;6937;56.096;12.664;2023-05-16T14:01:48;12.43;;;3.40;;
13731;SDS011;6937;56.096;12.664;2023-05-16T14:04:17;12.20;;;3.50;;
13731;SDS011;6937;56.096;12.664;2023-05-16T14:06:45;15.13;;;4.05;;
13731;SDS011;6937;56.096;12.664;2023-05-16T14:09:11;10.02;;;3.90;;
13731;SDS011;6937;56.096;12.664;2023-05-16T14:11:37;14.48;;;4.13;;
13731;SDS011;6937;56.096;12.664;2023-05-16T14:14:03;10.38;;;3.25;;
13731;SDS011;6937;56.096;12.664;2023-05-16T14:16:29;14.02;;;3.72;;
13731;SDS011;6937;56.096;12.664;2023-05-16T14:18:55;11.07;;;3.33;;
13731;SDS011;6937;56.096;12.664;2023-05-16T14:21:24;12.13;;;3.38;;
13731;SDS011;6937;56.096;12.664;2023-05-16T14:23:51;13.00;;;3.75;;
13731;SDS011;6937;56.096;12.664;2023-05-16T14:26:16;10.55;;;3.80;;
13731;SDS011;6937;56.096;12.664;2023-05-16T14:28:47;16.15;;;4.25;;
13731;SDS011;6937;56.096;12.664;2023-05-16T14:31:13;12.00;;;3.40;;
13731;SDS011;6937;56.096;12.664;2023-05-16T14:33:39;10.38;;;3.35;;
13731;SDS011;6937;56.096;12.664;2023-05-16T14:36:05;13.05;;;3.47;;
13731;SDS011;6937;56.096;12.664;2023-05-16T14:38:32;10.73;;;3.47;;
13731;SDS011;6937;56.096;12.664;2023-05-16T14:40:58;10.85;;;3.50;;
13731;SDS011;6937;56.096;12.664;2023-05-16T14:43:23;13.10;;;3.63;;
13731;SDS011;6937;56.096;12.664;2023-05-16T14:45:49;8.43;;;2.88;;
13731;SDS011;6937;56.096;12.664;2023-05-16T14:48:15;12.70;;;3.42;;
13731;SDS011;6937;56.096;12.664;2023-05-16T14:50:41;14.20;;;4.00;;
13731;SDS011;6937;56.096;12.664;2023-05-16T14:53:07;13.10;;;4.07;;
13731;SDS011;6937;56.096;12.664;2023-05-16T14:55:33;12.90;;;3.42;;
13731;SDS011;6937;56.096;12.664;2023-05-16T14:57:59;13.25;;;3.92;;
13731;SDS011;6937;56.096;12.664;2023-05-16T15:00:24;12.85;;;3.50;;
13731;SDS011;6937;56.096;12.664;2023-05-16T15:02:51;12.98;;;3.88;;
13731;SDS011;6937;56.096;12.664;2023-05-16T15:05:17;13.13;;;3.80;;
13731;SDS011;6937;56.096;12.664;2023-05-16T15:07:43;14.98;;;4.15;;
13731;SDS011;6937;56.096;12.664;2023-05-16T15:10:09;13.45;;;3.80;;
13731;SDS011;6937;56.096;12.664;2023-05-16T15:12:35;13.23;;;3.70;;